sensor_id;sensor_type;location;lat;lon;timestamp;P1;durP1;ratioP1;P2;durP2;ratioP2
41921;SDS011;27609;51.002;5.354;2023-05-21T00:01:00;9.90;;;7.20;;
41921;SDS011;27609;51.002;5.354;2023-05-21T00:03:27;7.55;;;6.75;;
41921;SDS011;27609;51.002;5.354;2023-05-21T00:05:54;10.25;;;6.82;;
41921;SDS011;27609;51.002;5.354;2023-05-21T00:08:20;10.00;;;7.30;;
41921;SDS011;27609;51.002;5.354;2023-05-21T00:10:47;8.63;;;6.75;;
41921;SDS011;27609;51.002;5.354;2023-05-21T00:13:13;7.18;;;6.47;;
41921;SDS011;27609;51.002;5.354;2023-05-21T00:15:39;10.77;;;6.82;;
41921;SDS011;27609;51.002;5.354;2023-05-21T00:18:04;10.18;;;7.53;;
41921;SDS011;27609;51.002;5.354;2023-05-21T00:20:30;13.02;;;8.10;;
41921;SDS011;27609;51.002;5.354;2023-05-21T00:22:57;9.82;;;8.93;;
41921;SDS011;27609;51.002;5.354;2023-05-21T00:25:23;8.55;;;7.45;;
41921;SDS011;27609;51.002;5.354;2023-05-21T00:27:49;8.93;;;8.02;;
41921;SDS011;27609;51.002;5.354;2023-05-21T00:30:15;10.25;;;8.45;;
41921;SDS011;27609;51.002;5.354;2023-05-21T00:32:40;10.43;;;8.77;;
41921;SDS011;27609;51.002;5.354;2023-05-21T00:35:06;13.57;;;9.00;;
41921;SDS011;27609;51.002;5.354;2023-05-21T00:37:32;9.20;;;7.85;;
41921;SDS011;27609;51.002;5.354;2023-05-21T00:40:02;13.68;;;8.55;;
41921;SDS011;27609;51.002;5.354;2023-05-21T00:42:35;11.98;;;8.63;;
41921;SDS011;27609;51.002;5.354;2023-05-21T00:45:05;11.53;;;8.90;;
41921;SDS011;27609;51.002;5.354;2023-05-21T00:47:32;10.40;;;9.10;;
41921;SDS011;27609;51.002;5.354;2023-05-21T00:49:59;9.55;;;8.23;;
41921;SDS011;27609;51.002;5.354;2023-05-21T00:52:26;13.48;;;8.88;;
41921;SDS011;27609;51.002;5.354;2023-05-21T00:54:52;14.60;;;8.60;;
41921;SDS011;27609;51.002;5.354;2023-05-21T00:57:19;11.43;;;8.85;;
41921;SDS011;27609;51.002;5.354;2023-05-21T00:59:47;11.32;;;9.07;;
41921;SDS011;27609;51.002;5.354;2023-05-21T01:02:15;12.63;;;9.00;;
41921;SDS011;27609;51.002;5.354;2023-05-21T01:04:43;10.95;;;8.95;;
41921;SDS011;27609;51.002;5.354;2023-05-21T01:07:12;10.80;;;8.80;;
41921;SDS011;27609;51.002;5.354;2023-05-21T01:09:41;10.73;;;8.50;;
41921;SDS011;27609;51.002;5.354;2023-05-21T01:12:07;12.05;;;8.45;;
41921;SDS011;27609;51.002;5.354;2023-05-21T01:14:35;10.15;;;8.07;;
41921;SDS011;27609;51.002;5.354;2023-05-21T01:17:03;15.98;;;8.88;;
41921;SDS011;27609;51.002;5.354;2023-05-21T01:19:30;16.05;;;9.27;;
41921;SDS011;27609;51.002;5.354;2023-05-21T01:21:59;12.60;;;9.27;;
41921;SDS011;27609;51.002;5.354;2023-05-21T01:24:28;13.40;;;9.43;;
41921;SDS011;27609;51.002;5.354;2023-05-21T01:26:54;12.88;;;9.48;;
41921;SDS011;27609;51.002;5.354;2023-05-21T01:29:20;11.82;;;9.43;;
41921;SDS011;27609;51.002;5.354;2023-05-21T01:32:00;13.55;;;9.70;;
41921;SDS011;27609;51.002;5.354;2023-05-21T01:34:57;14.93;;;10.07;;
41921;SDS011;27609;51.002;5.354;2023-05-21T01:37:49;10.55;;;9.10;;
41921;SDS011;27609;51.002;5.354;2023-05-21T01:40:28;13.55;;;9.52;;
41921;SDS011;27609;51.002;5.354;2023-05-21T01:43:00;13.18;;;9.32;;
41921;SDS011;27609;51.002;5.354;2023-05-21T01:45:27;11.02;;;9.55;;
41921;SDS011;27609;51.002;5.354;2023-05-21T01:47:56;13.15;;;9.13;;
41921;SDS011;27609;51.002;5.354;2023-05-21T01:50:22;11.65;;;9.20;;
41921;SDS011;27609;51.002;5.354;2023-05-21T01:52:51;14.65;;;8.80;;
41921;SDS011;27609;51.002;5.354;2023-05-21T01:55:19;10.35;;;8.77;;
41921;SDS011;27609;51.002;5.354;2023-05-21T01:57:54;11.52;;;9.20;;
41921;SDS011;27609;51.002;5.354;2023-05-21T02:00:20;11.02;;;9.82;;
41921;SDS011;27609;51.002;5.354;2023-05-21T02:02:47;11.75;;;9.93;;
41921;SDS011;27609;51.002;5.354;2023-05-21T02:05:14;10.40;;;9.30;;
41921;SDS011;27609;51.002;5.354;2023-05-21T02:07:39;13.15;;;10.13;;
41921;SDS011;27609;51.002;5.354;2023-05-21T02:10:07;14.63;;;10.05;;
41921;SDS011;27609;51.002;5.354;2023-05-21T02:12:33;14.35;;;10.07;;
41921;SDS011;27609;51.002;5.354;2023-05-21T02:14:59;14.20;;;9.80;;
41921;SDS011;27609;51.002;5.354;2023-05-21T02:17:26;11.80;;;9.80;;
41921;SDS011;27609;51.002;5.354;2023-05-21T02:19:55;12.98;;;9.95;;
41921;SDS011;27609;51.002;5.354;2023-05-21T02:22:21;14.35;;;10.45;;
41921;SDS011;27609;51.002;5.354;2023-05-21T02:24:47;12.52;;;10.05;;
41921;SDS011;27609;51.002;5.354;2023-05-21T02:27:13;13.82;;;10.50;;
41921;SDS011;27609;51.002;5.354;2023-05-21T02:29:41;13.07;;;10.32;;
41921;SDS011;27609;51.002;5.354;2023-05-21T02:32:07;10.88;;;9.65;;
41921;SDS011;27609;51.002;5.354;2023-05-21T02:34:33;12.13;;;10.52;;
41921;SDS011;27609;51.002;5.354;2023-05-21T02:37:01;16.70;;;10.35;;
41921;SDS011;27609;51.002;5.354;2023-05-21T02:39:26;15.63;;;10.73;;
41921;SDS011;27609;51.002;5.354;2023-05-21T02:41:52;13.48;;;9.82;;
41921;SDS011;27609;51.002;5.354;2023-05-21T02:44:18;11.45;;;10.25;;
41921;SDS011;27609;51.002;5.354;2023-05-21T02:46:44;14.15;;;10.57;;
41921;SDS011;27609;51.002;5.354;2023-05-21T02:49:10;14.35;;;10.00;;
41921;SDS011;27609;51.002;5.354;2023-05-21T02:51:36;14.60;;;9.23;;
41921;SDS011;27609;51.002;5.354;2023-05-21T02:54:02;13.45;;;9.40;;
41921;SDS011;27609;51.002;5.354;2023-05-21T02:56:28;11.93;;;9.60;;
41921;SDS011;27609;51.002;5.354;2023-05-21T02:58:53;11.43;;;8.95;;
41921;SDS011;27609;51.002;5.354;2023-05-21T03:01:19;11.25;;;9.63;;
41921;SDS011;27609;51.002;5.354;2023-05-21T03:03:45;13.18;;;9.63;;
41921;SDS011;27609;51.002;5.354;2023-05-21T03:06:10;15.13;;;9.70;;
41921;SDS011;27609;51.002;5.354;2023-05-21T03:08:36;11.90;;;8.68;;
41921;SDS011;27609;51.002;5.354;2023-05-21T03:11:02;12.77;;;10.00;;
41921;SDS011;27609;51.002;5.354;2023-05-21T03:13:28;10.73;;;9.13;;
41921;SDS011;27609;51.002;5.354;2023-05-21T03:15:54;11.68;;;9.48;;
41921;SDS011;27609;51.002;5.354;2023-05-21T03:18:20;15.38;;;8.75;;
41921;SDS011;27609;51.002;5.354;2023-05-21T03:20:47;13.57;;;9.10;;
41921;SDS011;27609;51.002;5.354;2023-05-21T03:23:12;10.77;;;9.32;;
41921;SDS011;27609;51.002;5.354;2023-05-21T03:25:38;11.27;;;9.40;;
41921;SDS011;27609;51.002;5.354;2023-05-21T03:28:04;11.90;;;9.77;;
41921;SDS011;27609;51.002;5.354;2023-05-21T03:30:30;12.13;;;9.40;;
41921;SDS011;27609;51.002;5.354;2023-05-21T03:32:56;12.05;;;9.32;;
41921;SDS011;27609;51.002;5.354;2023-05-21T03:35:23;12.57;;;8.82;;
41921;SDS011;27609;51.002;5.354;2023-05-21T03:37:49;13.20;;;9.48;;
41921;SDS011;27609;51.002;5.354;2023-05-21T03:40:15;11.82;;;9.18;;
41921;SDS011;27609;51.002;5.354;2023-05-21T03:42:41;14.27;;;9.23;;
41921;SDS011;27609;51.002;5.354;2023-05-21T03:45:07;15.98;;;10.23;;
41921;SDS011;27609;51.002;5.354;2023-05-21T03:47:33;9.82;;;8.48;;
41921;SDS011;27609;51.002;5.354;2023-05-21T03:50:00;15.32;;;9.85;;
41921;SDS011;27609;51.002;5.354;2023-05-21T03:52:26;10.07;;;8.95;;
41921;SDS011;27609;51.002;5.354;2023-05-21T03:54:52;11.50;;;9.35;;
41921;SDS011;27609;51.002;5.354;2023-05-21T03:57:17;10.30;;;9.30;;
41921;SDS011;27609;51.002;5.354;2023-05-21T03:59:43;14.20;;;9.57;;
41921;SDS011;27609;51.002;5.354;2023-05-21T04:02:09;11.40;;;9.02;;
41921;SDS011;27609;51.002;5.354;2023-05-21T04:04:35;15.30;;;9.68;;
41921;SDS011;27609;51.002;5.354;2023-05-21T04:07:01;10.63;;;8.43;;
41921;SDS011;27609;51.002;5.354;2023-05-21T04:09:28;12.05;;;9.52;;
41921;SDS011;27609;51.002;5.354;2023-05-21T04:11:54;13.57;;;9.68;;
41921;SDS011;27609;51.002;5.354;2023-05-21T04:14:21;12.57;;;9.60;;
41921;SDS011;27609;51.002;5.354;2023-05-21T04:16:47;11.40;;;8.30;;
41921;SDS011;27609;51.002;5.354;2023-05-21T04:19:13;11.85;;;9.18;;
41921;SDS011;27609;51.002;5.354;2023-05-21T04:21:39;10.95;;;9.02;;
41921;SDS011;27609;51.002;5.354;2023-05-21T04:24:04;16.20;;;9.88;;
41921;SDS011;27609;51.002;5.354;2023-05-21T04:26:30;11.13;;;9.30;;
41921;SDS011;27609;51.002;5.354;2023-05-21T04:28:59;15.23;;;8.93;;
41921;SDS011;27609;51.002;5.354;2023-05-21T04:31:28;11.10;;;8.90;;
41921;SDS011;27609;51.002;5.354;2023-05-21T04:33:56;11.30;;;8.15;;
41921;SDS011;27609;51.002;5.354;2023-05-21T04:36:21;12.15;;;8.32;;
41921;SDS011;27609;51.002;5.354;2023-05-21T04:38:48;9.63;;;7.65;;
41921;SDS011;27609;51.002;5.354;2023-05-21T04:41:14;11.27;;;8.48;;
41921;SDS011;27609;51.002;5.354;2023-05-21T04:43:42;9.88;;;7.57;;
41921;SDS011;27609;51.002;5.354;2023-05-21T04:46:08;9.82;;;8.25;;
41921;SDS011;27609;51.002;5.354;2023-05-21T04:48:34;10.38;;;8.10;;
41921;SDS011;27609;51.002;5.354;2023-05-21T04:51:00;11.10;;;7.60;;
41921;SDS011;27609;51.002;5.354;2023-05-21T04:53:25;17.15;;;7.60;;
41921;SDS011;27609;51.002;5.354;2023-05-21T04:55:51;10.95;;;7.68;;
41921;SDS011;27609;51.002;5.354;2023-05-21T04:58:17;11.98;;;7.38;;
41921;SDS011;27609;51.002;5.354;2023-05-21T05:00:43;11.02;;;7.78;;
41921;SDS011;27609;51.002;5.354;2023-05-21T05:03:14;8.07;;;7.22;;
41921;SDS011;27609;51.002;5.354;2023-05-21T05:05:40;13.13;;;8.00;;
41921;SDS011;27609;51.002;5.354;2023-05-21T05:08:06;9.90;;;7.05;;
41921;SDS011;27609;51.002;5.354;2023-05-21T05:10:32;12.02;;;7.63;;
41921;SDS011;27609;51.002;5.354;2023-05-21T05:12:58;8.15;;;7.00;;
41921;SDS011;27609;51.002;5.354;2023-05-21T05:15:24;8.75;;;7.68;;
41921;SDS011;27609;51.002;5.354;2023-05-21T05:17:50;9.88;;;7.28;;
41921;SDS011;27609;51.002;5.354;2023-05-21T05:20:16;9.23;;;7.20;;
41921;SDS011;27609;51.002;5.354;2023-05-21T05:22:41;10.30;;;7.22;;
41921;SDS011;27609;51.002;5.354;2023-05-21T05:25:07;10.77;;;7.20;;
41921;SDS011;27609;51.002;5.354;2023-05-21T05:27:33;13.95;;;7.30;;
41921;SDS011;27609;51.002;5.354;2023-05-21T05:29:59;9.20;;;7.07;;
41921;SDS011;27609;51.002;5.354;2023-05-21T05:32:24;9.95;;;6.60;;
41921;SDS011;27609;51.002;5.354;2023-05-21T05:34:50;10.43;;;7.57;;
41921;SDS011;27609;51.002;5.354;2023-05-21T05:37:16;8.63;;;7.15;;
41921;SDS011;27609;51.002;5.354;2023-05-21T05:39:41;8.93;;;6.80;;
41921;SDS011;27609;51.002;5.354;2023-05-21T05:42:07;13.57;;;7.00;;
41921;SDS011;27609;51.002;5.354;2023-05-21T05:44:33;8.02;;;7.20;;
41921;SDS011;27609;51.002;5.354;2023-05-21T05:46:59;7.80;;;6.65;;
41921;SDS011;27609;51.002;5.354;2023-05-21T05:49:24;7.80;;;6.53;;
41921;SDS011;27609;51.002;5.354;2023-05-21T05:51:50;9.93;;;7.13;;
41921;SDS011;27609;51.002;5.354;2023-05-21T05:54:16;8.13;;;6.53;;
41921;SDS011;27609;51.002;5.354;2023-05-21T05:56:42;8.43;;;6.32;;
41921;SDS011;27609;51.002;5.354;2023-05-21T05:59:07;8.70;;;6.93;;
41921;SDS011;27609;51.002;5.354;2023-05-21T06:01:33;9.60;;;6.43;;
41921;SDS011;27609;51.002;5.354;2023-05-21T06:03:59;8.48;;;7.00;;
41921;SDS011;27609;51.002;5.354;2023-05-21T06:06:24;7.45;;;6.53;;
41921;SDS011;27609;51.002;5.354;2023-05-21T06:08:50;9.35;;;7.40;;
41921;SDS011;27609;51.002;5.354;2023-05-21T06:11:16;10.25;;;6.82;;
41921;SDS011;27609;51.002;5.354;2023-05-21T06:13:42;10.77;;;6.60;;
41921;SDS011;27609;51.002;5.354;2023-05-21T06:16:09;8.07;;;6.60;;
41921;SDS011;27609;51.002;5.354;2023-05-21T06:18:35;10.45;;;6.85;;
41921;SDS011;27609;51.002;5.354;2023-05-21T06:21:01;9.57;;;6.93;;
41921;SDS011;27609;51.002;5.354;2023-05-21T06:23:27;10.30;;;6.82;;
41921;SDS011;27609;51.002;5.354;2023-05-21T06:25:52;7.80;;;7.03;;
41921;SDS011;27609;51.002;5.354;2023-05-21T06:28:18;9.70;;;6.97;;
41921;SDS011;27609;51.002;5.354;2023-05-21T06:30:44;8.32;;;6.97;;
41921;SDS011;27609;51.002;5.354;2023-05-21T06:33:10;9.18;;;6.53;;
41921;SDS011;27609;51.002;5.354;2023-05-21T06:35:36;7.97;;;6.38;;
41921;SDS011;27609;51.002;5.354;2023-05-21T06:38:03;7.35;;;6.63;;
41921;SDS011;27609;51.002;5.354;2023-05-21T06:40:29;11.07;;;7.80;;
41921;SDS011;27609;51.002;5.354;2023-05-21T06:42:55;8.43;;;7.10;;
41921;SDS011;27609;51.002;5.354;2023-05-21T06:45:21;8.32;;;6.70;;
41921;SDS011;27609;51.002;5.354;2023-05-21T06:47:47;8.88;;;6.88;;
41921;SDS011;27609;51.002;5.354;2023-05-21T06:50:13;10.30;;;6.88;;
41921;SDS011;27609;51.002;5.354;2023-05-21T06:52:38;7.40;;;6.53;;
41921;SDS011;27609;51.002;5.354;2023-05-21T06:55:04;9.65;;;6.60;;
41921;SDS011;27609;51.002;5.354;2023-05-21T06:57:31;9.40;;;6.85;;
41921;SDS011;27609;51.002;5.354;2023-05-21T06:59:56;9.00;;;6.53;;
41921;SDS011;27609;51.002;5.354;2023-05-21T07:02:22;9.27;;;6.60;;
41921;SDS011;27609;51.002;5.354;2023-05-21T07:04:48;8.15;;;6.00;;
41921;SDS011;27609;51.002;5.354;2023-05-21T07:07:13;9.95;;;7.13;;
41921;SDS011;27609;51.002;5.354;2023-05-21T07:09:39;7.80;;;6.80;;
41921;SDS011;27609;51.002;5.354;2023-05-21T07:12:05;9.40;;;7.03;;
41921;SDS011;27609;51.002;5.354;2023-05-21T07:14:31;9.63;;;7.25;;
41921;SDS011;27609;51.002;5.354;2023-05-21T07:16:56;8.93;;;6.93;;
41921;SDS011;27609;51.002;5.354;2023-05-21T07:19:22;7.07;;;6.38;;
41921;SDS011;27609;51.002;5.354;2023-05-21T07:21:48;6.97;;;5.97;;
41921;SDS011;27609;51.002;5.354;2023-05-21T07:24:14;7.28;;;5.57;;
41921;SDS011;27609;51.002;5.354;2023-05-21T07:26:39;12.65;;;6.22;;
41921;SDS011;27609;51.002;5.354;2023-05-21T07:29:06;8.23;;;6.20;;
41921;SDS011;27609;51.002;5.354;2023-05-21T07:31:31;7.32;;;5.90;;
41921;SDS011;27609;51.002;5.354;2023-05-21T07:33:57;6.80;;;5.88;;
41921;SDS011;27609;51.002;5.354;2023-05-21T07:36:23;7.30;;;5.88;;
41921;SDS011;27609;51.002;5.354;2023-05-21T07:38:49;7.72;;;6.90;;
41921;SDS011;27609;51.002;5.354;2023-05-21T07:41:15;6.72;;;6.03;;
41921;SDS011;27609;51.002;5.354;2023-05-21T07:43:41;6.40;;;5.80;;
41921;SDS011;27609;51.002;5.354;2023-05-21T07:46:07;6.82;;;6.18;;
41921;SDS011;27609;51.002;5.354;2023-05-21T07:48:32;6.95;;;6.18;;
41921;SDS011;27609;51.002;5.354;2023-05-21T07:50:58;6.82;;;5.68;;
41921;SDS011;27609;51.002;5.354;2023-05-21T07:53:24;8.98;;;6.35;;
41921;SDS011;27609;51.002;5.354;2023-05-21T07:55:50;7.88;;;7.07;;
41921;SDS011;27609;51.002;5.354;2023-05-21T07:58:16;7.30;;;6.57;;
41921;SDS011;27609;51.002;5.354;2023-05-21T08:00:44;12.38;;;6.85;;
41921;SDS011;27609;51.002;5.354;2023-05-21T08:03:14;7.22;;;6.28;;
41921;SDS011;27609;51.002;5.354;2023-05-21T08:05:41;9.05;;;7.00;;
41921;SDS011;27609;51.002;5.354;2023-05-21T08:08:12;6.90;;;6.20;;
41921;SDS011;27609;51.002;5.354;2023-05-21T08:10:38;9.30;;;6.90;;
41921;SDS011;27609;51.002;5.354;2023-05-21T08:13:04;8.20;;;7.40;;
41921;SDS011;27609;51.002;5.354;2023-05-21T08:15:30;8.65;;;6.25;;
41921;SDS011;27609;51.002;5.354;2023-05-21T08:17:55;9.30;;;6.82;;
41921;SDS011;27609;51.002;5.354;2023-05-21T08:20:21;8.40;;;7.00;;
41921;SDS011;27609;51.002;5.354;2023-05-21T08:22:47;7.30;;;6.60;;
41921;SDS011;27609;51.002;5.354;2023-05-21T08:25:13;8.05;;;6.90;;
41921;SDS011;27609;51.002;5.354;2023-05-21T08:27:39;7.63;;;6.93;;
41921;SDS011;27609;51.002;5.354;2023-05-21T08:30:06;7.55;;;6.80;;
41921;SDS011;27609;51.002;5.354;2023-05-21T08:32:35;11.65;;;7.82;;
41921;SDS011;27609;51.002;5.354;2023-05-21T08:35:01;9.90;;;6.57;;
41921;SDS011;27609;51.002;5.354;2023-05-21T08:37:28;8.52;;;7.00;;
41921;SDS011;27609;51.002;5.354;2023-05-21T08:39:53;8.55;;;7.60;;
41921;SDS011;27609;51.002;5.354;2023-05-21T08:45:07;8.18;;;7.10;;
41921;SDS011;27609;51.002;5.354;2023-05-21T08:47:35;9.33;;;7.47;;
41921;SDS011;27609;51.002;5.354;2023-05-21T08:50:06;10.00;;;7.57;;
41921;SDS011;27609;51.002;5.354;2023-05-21T08:52:34;12.95;;;7.30;;
41921;SDS011;27609;51.002;5.354;2023-05-21T08:55:02;8.80;;;7.53;;
41921;SDS011;27609;51.002;5.354;2023-05-21T08:57:29;11.60;;;7.72;;
41921;SDS011;27609;51.002;5.354;2023-05-21T08:59:55;10.27;;;8.02;;
41921;SDS011;27609;51.002;5.354;2023-05-21T09:02:22;10.77;;;7.40;;
41921;SDS011;27609;51.002;5.354;2023-05-21T09:04:49;7.60;;;6.80;;
41921;SDS011;27609;51.002;5.354;2023-05-21T09:07:21;8.38;;;7.28;;
41921;SDS011;27609;51.002;5.354;2023-05-21T09:09:55;8.27;;;6.32;;
41921;SDS011;27609;51.002;5.354;2023-05-21T09:12:23;9.02;;;6.53;;
41921;SDS011;27609;51.002;5.354;2023-05-21T09:14:49;6.88;;;6.28;;
41921;SDS011;27609;51.002;5.354;2023-05-21T09:17:16;10.55;;;6.20;;
41921;SDS011;27609;51.002;5.354;2023-05-21T09:22:43;11.60;;;7.20;;
41921;SDS011;27609;51.002;5.354;2023-05-21T09:25:11;7.88;;;7.10;;
41921;SDS011;27609;51.002;5.354;2023-05-21T09:27:39;10.20;;;7.35;;
41921;SDS011;27609;51.002;5.354;2023-05-21T09:30:12;7.15;;;6.45;;
41921;SDS011;27609;51.002;5.354;2023-05-21T09:32:39;8.35;;;7.55;;
41921;SDS011;27609;51.002;5.354;2023-05-21T09:35:14;7.68;;;6.95;;
41921;SDS011;27609;51.002;5.354;2023-05-21T09:37:43;7.78;;;6.63;;
41921;SDS011;27609;51.002;5.354;2023-05-21T09:40:12;11.10;;;7.68;;
41921;SDS011;27609;51.002;5.354;2023-05-21T09:42:40;12.90;;;7.82;;
41921;SDS011;27609;51.002;5.354;2023-05-21T09:45:08;8.90;;;7.80;;
41921;SDS011;27609;51.002;5.354;2023-05-21T09:47:39;9.45;;;7.45;;
41921;SDS011;27609;51.002;5.354;2023-05-21T09:50:09;9.07;;;8.27;;
41921;SDS011;27609;51.002;5.354;2023-05-21T09:52:36;8.95;;;8.05;;
41921;SDS011;27609;51.002;5.354;2023-05-21T09:55:05;8.32;;;7.63;;
41921;SDS011;27609;51.002;5.354;2023-05-21T09:57:39;9.45;;;7.53;;
41921;SDS011;27609;51.002;5.354;2023-05-21T10:00:08;10.95;;;7.97;;
41921;SDS011;27609;51.002;5.354;2023-05-21T10:02:41;9.60;;;7.93;;
41921;SDS011;27609;51.002;5.354;2023-05-21T10:05:10;9.80;;;8.70;;
41921;SDS011;27609;51.002;5.354;2023-05-21T10:07:37;10.48;;;8.45;;
41921;SDS011;27609;51.002;5.354;2023-05-21T10:10:11;9.48;;;7.72;;
41921;SDS011;27609;51.002;5.354;2023-05-21T10:12:39;10.13;;;7.50;;
41921;SDS011;27609;51.002;5.354;2023-05-21T10:15:09;8.75;;;7.50;;
41921;SDS011;27609;51.002;5.354;2023-05-21T10:17:41;8.55;;;7.75;;
41921;SDS011;27609;51.002;5.354;2023-05-21T10:22:36;10.65;;;8.90;;
41921;SDS011;27609;51.002;5.354;2023-05-21T10:25:04;12.13;;;8.88;;
41921;SDS011;27609;51.002;5.354;2023-05-21T10:27:32;10.13;;;8.48;;
41921;SDS011;27609;51.002;5.354;2023-05-21T10:29:59;9.90;;;8.90;;
41921;SDS011;27609;51.002;5.354;2023-05-21T10:32:26;10.52;;;8.60;;
41921;SDS011;27609;51.002;5.354;2023-05-21T10:34:55;10.50;;;8.65;;
41921;SDS011;27609;51.002;5.354;2023-05-21T10:37:22;9.88;;;8.88;;
41921;SDS011;27609;51.002;5.354;2023-05-21T10:39:50;9.13;;;8.23;;
41921;SDS011;27609;51.002;5.354;2023-05-21T10:48:08;10.93;;;8.88;;
41921;SDS011;27609;51.002;5.354;2023-05-21T10:56:04;9.90;;;9.00;;
41921;SDS011;27609;51.002;5.354;2023-05-21T11:01:36;11.18;;;8.80;;
41921;SDS011;27609;51.002;5.354;2023-05-21T11:04:04;10.23;;;9.23;;
41921;SDS011;27609;51.002;5.354;2023-05-21T11:06:30;10.80;;;8.48;;
41921;SDS011;27609;51.002;5.354;2023-05-21T11:08:59;10.73;;;8.73;;
41921;SDS011;27609;51.002;5.354;2023-05-21T11:11:40;9.55;;;8.43;;
41921;SDS011;27609;51.002;5.354;2023-05-21T11:17:14;10.60;;;9.65;;
41921;SDS011;27609;51.002;5.354;2023-05-21T11:22:28;12.48;;;9.93;;
41921;SDS011;27609;51.002;5.354;2023-05-21T11:24:53;11.02;;;9.88;;
41921;SDS011;27609;51.002;5.354;2023-05-21T11:27:37;14.18;;;9.20;;
41921;SDS011;27609;51.002;5.354;2023-05-21T11:32:36;12.38;;;9.50;;
41921;SDS011;27609;51.002;5.354;2023-05-21T11:35:03;10.55;;;9.48;;
41921;SDS011;27609;51.002;5.354;2023-05-21T11:37:30;9.80;;;8.73;;
41921;SDS011;27609;51.002;5.354;2023-05-21T11:40:18;10.18;;;9.10;;
41921;SDS011;27609;51.002;5.354;2023-05-21T11:42:47;11.82;;;9.52;;
41921;SDS011;27609;51.002;5.354;2023-05-21T11:45:26;12.82;;;9.95;;
41921;SDS011;27609;51.002;5.354;2023-05-21T11:47:53;11.63;;;10.43;;
41921;SDS011;27609;51.002;5.354;2023-05-21T11:50:20;11.85;;;10.15;;
41921;SDS011;27609;51.002;5.354;2023-05-21T11:52:46;11.75;;;9.93;;
41921;SDS011;27609;51.002;5.354;2023-05-21T11:55:12;10.13;;;8.63;;
41921;SDS011;27609;51.002;5.354;2023-05-21T11:57:40;10.80;;;9.73;;
41921;SDS011;27609;51.002;5.354;2023-05-21T12:00:11;14.27;;;11.05;;
41921;SDS011;27609;51.002;5.354;2023-05-21T12:02:51;12.55;;;11.30;;
41921;SDS011;27609;51.002;5.354;2023-05-21T12:05:17;12.07;;;10.60;;
41921;SDS011;27609;51.002;5.354;2023-05-21T12:07:46;11.10;;;10.02;;
41921;SDS011;27609;51.002;5.354;2023-05-21T12:10:14;13.23;;;10.93;;
41921;SDS011;27609;51.002;5.354;2023-05-21T12:12:40;12.35;;;10.45;;
41921;SDS011;27609;51.002;5.354;2023-05-21T12:15:05;12.23;;;10.95;;
41921;SDS011;27609;51.002;5.354;2023-05-21T12:17:31;10.45;;;9.45;;
41921;SDS011;27609;51.002;5.354;2023-05-21T12:19:58;12.88;;;10.00;;
41921;SDS011;27609;51.002;5.354;2023-05-21T12:22:25;12.27;;;10.77;;
41921;SDS011;27609;51.002;5.354;2023-05-21T12:24:54;13.40;;;10.50;;
41921;SDS011;27609;51.002;5.354;2023-05-21T12:27:22;12.95;;;11.57;;
41921;SDS011;27609;51.002;5.354;2023-05-21T12:29:48;13.25;;;10.45;;
41921;SDS011;27609;51.002;5.354;2023-05-21T12:32:18;13.43;;;10.15;;
41921;SDS011;27609;51.002;5.354;2023-05-21T12:34:46;10.93;;;9.77;;
41921;SDS011;27609;51.002;5.354;2023-05-21T12:37:22;11.88;;;10.68;;
41921;SDS011;27609;51.002;5.354;2023-05-21T12:39:50;18.73;;;11.25;;
41921;SDS011;27609;51.002;5.354;2023-05-21T12:42:25;14.50;;;9.88;;
41921;SDS011;27609;51.002;5.354;2023-05-21T12:44:53;12.27;;;9.98;;
41921;SDS011;27609;51.002;5.354;2023-05-21T12:47:24;11.35;;;10.27;;
41921;SDS011;27609;51.002;5.354;2023-05-21T12:49:57;12.35;;;10.15;;
41921;SDS011;27609;51.002;5.354;2023-05-21T12:52:24;13.63;;;9.00;;
41921;SDS011;27609;51.002;5.354;2023-05-21T12:54:51;11.80;;;9.73;;
41921;SDS011;27609;51.002;5.354;2023-05-21T12:57:22;12.90;;;9.68;;
41921;SDS011;27609;51.002;5.354;2023-05-21T12:59:55;10.77;;;9.77;;
41921;SDS011;27609;51.002;5.354;2023-05-21T13:02:25;15.20;;;9.32;;
41921;SDS011;27609;51.002;5.354;2023-05-21T13:05:05;12.43;;;11.13;;
41921;SDS011;27609;51.002;5.354;2023-05-21T13:07:32;10.77;;;9.68;;
41921;SDS011;27609;51.002;5.354;2023-05-21T13:10:00;11.07;;;9.45;;
41921;SDS011;27609;51.002;5.354;2023-05-21T13:12:27;10.63;;;9.38;;
41921;SDS011;27609;51.002;5.354;2023-05-21T13:14:58;11.15;;;10.00;;
41921;SDS011;27609;51.002;5.354;2023-05-21T13:17:25;10.90;;;9.55;;
41921;SDS011;27609;51.002;5.354;2023-05-21T13:22:41;11.95;;;9.73;;
41921;SDS011;27609;51.002;5.354;2023-05-21T13:25:10;10.45;;;9.45;;
41921;SDS011;27609;51.002;5.354;2023-05-21T13:27:39;10.10;;;9.10;;
41921;SDS011;27609;51.002;5.354;2023-05-21T13:30:05;11.45;;;10.02;;
41921;SDS011;27609;51.002;5.354;2023-05-21T13:32:32;10.48;;;9.38;;
41921;SDS011;27609;51.002;5.354;2023-05-21T13:34:57;13.93;;;10.02;;
41921;SDS011;27609;51.002;5.354;2023-05-21T13:37:23;12.27;;;8.57;;
41921;SDS011;27609;51.002;5.354;2023-05-21T13:39:49;10.18;;;9.18;;
41921;SDS011;27609;51.002;5.354;2023-05-21T13:42:15;11.98;;;9.43;;
41921;SDS011;27609;51.002;5.354;2023-05-21T13:44:40;10.98;;;8.98;;
41921;SDS011;27609;51.002;5.354;2023-05-21T13:47:06;10.70;;;8.77;;
41921;SDS011;27609;51.002;5.354;2023-05-21T13:49:36;9.82;;;8.90;;
41921;SDS011;27609;51.002;5.354;2023-05-21T13:52:02;11.05;;;9.45;;
41921;SDS011;27609;51.002;5.354;2023-05-21T13:54:28;10.90;;;9.43;;
41921;SDS011;27609;51.002;5.354;2023-05-21T13:56:55;11.02;;;10.02;;
41921;SDS011;27609;51.002;5.354;2023-05-21T13:59:21;10.30;;;9.15;;
41921;SDS011;27609;51.002;5.354;2023-05-21T14:01:47;9.60;;;8.57;;
41921;SDS011;27609;51.002;5.354;2023-05-21T14:04:14;10.88;;;8.52;;
41921;SDS011;27609;51.002;5.354;2023-05-21T14:06:43;11.38;;;9.63;;
41921;SDS011;27609;51.002;5.354;2023-05-21T14:09:10;12.70;;;10.13;;
41921;SDS011;27609;51.002;5.354;2023-05-21T14:11:36;13.27;;;10.68;;
41921;SDS011;27609;51.002;5.354;2023-05-21T14:14:02;12.70;;;9.85;;
41921;SDS011;27609;51.002;5.354;2023-05-21T14:16:28;11.60;;;9.45;;
41921;SDS011;27609;51.002;5.354;2023-05-21T14:18:54;10.68;;;9.57;;
41921;SDS011;27609;51.002;5.354;2023-05-21T14:21:23;10.98;;;8.73;;
41921;SDS011;27609;51.002;5.354;2023-05-21T14:23:49;12.93;;;10.18;;
41921;SDS011;27609;51.002;5.354;2023-05-21T14:26:16;14.70;;;9.52;;
41921;SDS011;27609;51.002;5.354;2023-05-21T14:28:43;10.88;;;9.20;;
41921;SDS011;27609;51.002;5.354;2023-05-21T14:31:09;10.52;;;9.10;;
41921;SDS011;27609;51.002;5.354;2023-05-21T14:33:36;11.93;;;9.80;;
41921;SDS011;27609;51.002;5.354;2023-05-21T14:36:03;12.07;;;9.15;;
41921;SDS011;27609;51.002;5.354;2023-05-21T14:38:29;14.52;;;9.85;;
41921;SDS011;27609;51.002;5.354;2023-05-21T14:40:55;11.88;;;10.70;;
41921;SDS011;27609;51.002;5.354;2023-05-21T14:43:21;14.02;;;10.13;;
41921;SDS011;27609;51.002;5.354;2023-05-21T14:45:50;11.95;;;10.07;;
41921;SDS011;27609;51.002;5.354;2023-05-21T14:48:16;19.02;;;10.98;;
41921;SDS011;27609;51.002;5.354;2023-05-21T14:50:46;16.35;;;11.40;;
41921;SDS011;27609;51.002;5.354;2023-05-21T14:53:12;11.77;;;9.48;;
41921;SDS011;27609;51.002;5.354;2023-05-21T14:55:38;10.82;;;9.77;;
41921;SDS011;27609;51.002;5.354;2023-05-21T14:58:04;11.38;;;10.15;;
41921;SDS011;27609;51.002;5.354;2023-05-21T15:00:30;12.82;;;10.43;;
41921;SDS011;27609;51.002;5.354;2023-05-21T15:02:57;14.02;;;11.20;;
41921;SDS011;27609;51.002;5.354;2023-05-21T15:05:26;13.30;;;11.90;;
41921;SDS011;27609;51.002;5.354;2023-05-21T15:07:53;19.33;;;11.68;;
41921;SDS011;27609;51.002;5.354;2023-05-21T15:10:26;16.40;;;11.33;;